createdAt,value
2018-03-28T00:00:41.227Z,13.60
2018-03-28T00:03:07.908Z,13.97
2018-03-28T00:05:34.606Z,13.30
2018-03-28T00:08:01.292Z,13.77
2018-03-28T00:10:27.992Z,13.60
2018-03-28T00:12:54.687Z,13.70
2018-03-28T00:15:21.406Z,12.33
2018-03-28T00:17:48.123Z,14.00
2018-03-28T00:20:14.815Z,12.10
2018-03-28T00:22:41.534Z,13.13
2018-03-28T00:25:08.223Z,13.27
2018-03-28T00:27:34.943Z,14.83
2018-03-28T00:30:01.652Z,13.13
2018-03-28T00:32:28.354Z,15.10
2018-03-28T00:34:55.049Z,13.13
2018-03-28T00:37:21.732Z,12.60
2018-03-28T00:39:48.426Z,13.00
2018-03-28T00:42:15.124Z,12.53
2018-03-28T00:44:41.820Z,13.63
2018-03-28T00:47:08.523Z,13.57
2018-03-28T00:49:35.225Z,15.43
2018-03-28T00:52:01.911Z,15.10
2018-03-28T00:54:28.630Z,14.67
2018-03-28T00:56:55.315Z,14.90
2018-03-28T00:59:22.020Z,16.87
2018-03-28T01:01:48.716Z,16.50
2018-03-28T01:04:15.413Z,17.07
2018-03-28T01:06:42.159Z,20.90
2018-03-28T01:09:08.910Z,27.30
2018-03-28T01:11:35.623Z,29.30
2018-03-28T01:14:02.337Z,28.80
2018-03-28T01:16:29.050Z,26.30
2018-03-28T01:18:55.764Z,25.70
2018-03-28T01:21:22.514Z,27.10
2018-03-28T01:23:49.239Z,27.97
2018-03-28T01:26:15.966Z,29.10
2018-03-28T01:28:42.703Z,27.03
2018-03-28T01:31:09.487Z,27.80
2018-03-28T01:33:36.189Z,29.10
2018-03-28T01:36:02.939Z,28.13
2018-03-28T01:38:29.692Z,25.47
2018-03-28T01:40:56.430Z,28.50
2018-03-28T01:43:23.155Z,28.27
2018-03-28T01:45:49.868Z,29.47
2018-03-28T01:48:16.600Z,30.57
2018-03-28T01:50:43.370Z,29.40
2018-03-28T01:53:10.092Z,29.30
2018-03-28T01:55:36.817Z,28.60
2018-03-28T01:58:03.650Z,27.60
2018-03-28T02:00:30.391Z,29.50
2018-03-28T02:02:57.159Z,26.00
2018-03-28T02:05:23.892Z,26.63
2018-03-28T02:07:50.627Z,26.00
2018-03-28T02:10:17.321Z,26.47
2018-03-28T02:12:44.034Z,26.53
2018-03-28T02:15:10.779Z,25.57
2018-03-28T02:17:37.628Z,25.57
2018-03-28T02:20:04.431Z,24.43
2018-03-28T02:22:31.173Z,23.53
2018-03-28T02:24:57.916Z,22.97
2018-03-28T02:27:24.646Z,19.57
2018-03-28T02:29:51.375Z,20.10
2018-03-28T02:32:18.106Z,19.10
2018-03-28T02:34:44.826Z,19.83
2018-03-28T02:37:11.546Z,24.47
2018-03-28T02:39:38.288Z,26.20
2018-03-28T02:42:05.014Z,28.33
2018-03-28T02:44:31.757Z,26.10
2018-03-28T02:46:58.516Z,26.37
2018-03-28T02:49:25.249Z,25.53
2018-03-28T02:51:52.551Z,26.53
2018-03-28T02:54:19.270Z,25.23
2018-03-28T02:56:45.999Z,24.60
2018-03-28T02:59:12.735Z,25.93
2018-03-28T03:01:39.451Z,26.03
2018-03-28T03:04:06.182Z,26.33
2018-03-28T03:06:32.931Z,26.10
2018-03-28T03:08:59.667Z,28.20
2018-03-28T03:11:26.415Z,26.33
2018-03-28T03:13:53.137Z,24.00
2018-03-28T03:16:19.868Z,24.17
2018-03-28T03:18:46.602Z,22.90
2018-03-28T03:21:13.325Z,21.57
2018-03-28T03:23:40.062Z,21.53
2018-03-28T03:26:06.789Z,22.53
2018-03-28T03:28:33.509Z,22.40
2018-03-28T03:31:00.254Z,22.00
2018-03-28T03:33:26.991Z,21.67
2018-03-28T03:35:53.711Z,21.80
2018-03-28T03:38:20.447Z,22.10
2018-03-28T03:40:47.169Z,20.40
2018-03-28T03:43:13.896Z,22.60
2018-03-28T03:45:40.628Z,20.87
2018-03-28T03:48:07.358Z,23.40
2018-03-28T03:50:34.083Z,22.40
2018-03-28T03:53:00.812Z,23.13
2018-03-28T03:55:27.536Z,23.00
2018-03-28T03:57:54.256Z,24.40
2018-03-28T04:00:21.245Z,22.53
2018-03-28T04:02:47.971Z,22.60
2018-03-28T04:05:14.709Z,23.73
2018-03-28T04:07:41.566Z,24.47
2018-03-28T04:10:08.294Z,22.17
2018-03-28T04:12:35.020Z,23.80
2018-03-28T04:15:01.787Z,22.60
2018-03-28T04:17:28.518Z,22.90
2018-03-28T04:19:55.248Z,23.57
2018-03-28T04:22:22.011Z,24.97
2018-03-28T04:24:48.734Z,24.13
2018-03-28T04:27:15.458Z,21.00
2018-03-28T04:29:42.195Z,20.97
2018-03-28T04:32:09.084Z,20.37
2018-03-28T04:34:36.008Z,21.17
2018-03-28T04:37:02.738Z,22.50
2018-03-28T04:39:29.487Z,20.33
2018-03-28T04:41:56.225Z,22.97
2018-03-28T04:44:22.955Z,21.50
2018-03-28T04:46:49.714Z,23.20
2018-03-28T04:49:16.478Z,22.60
2018-03-28T04:51:43.296Z,22.30
2018-03-28T04:54:10.080Z,21.07
2018-03-28T04:56:37.725Z,25.03
2018-03-28T04:59:04.473Z,24.77
2018-03-28T05:01:31.324Z,24.93
2018-03-28T05:03:58.074Z,23.93
2018-03-28T05:06:25.204Z,23.83
2018-03-28T05:08:51.931Z,24.40
2018-03-28T05:11:18.677Z,26.10
2018-03-28T05:13:45.672Z,25.70
2018-03-28T05:16:12.414Z,25.30
2018-03-28T05:18:39.142Z,27.53
2018-03-28T05:21:05.873Z,25.80
2018-03-28T05:23:32.601Z,25.87
2018-03-28T05:25:59.314Z,26.67
2018-03-28T05:28:26.042Z,26.97
2018-03-28T05:30:52.777Z,25.40
2018-03-28T05:33:19.577Z,26.13
2018-03-28T05:35:46.308Z,25.30
2018-03-28T05:38:13.036Z,26.43
2018-03-28T05:40:39.757Z,24.97
2018-03-28T05:43:06.489Z,22.60
2018-03-28T05:45:33.212Z,24.27
2018-03-28T05:47:59.946Z,24.00
2018-03-28T05:50:26.754Z,24.80
2018-03-28T05:52:53.458Z,23.83
2018-03-28T05:55:20.194Z,25.17
2018-03-28T05:57:46.914Z,25.07
2018-03-28T06:00:14.680Z,25.37
2018-03-28T06:02:41.411Z,24.70
2018-03-28T06:05:08.144Z,24.90
2018-03-28T06:07:34.931Z,25.23
2018-03-28T06:10:01.653Z,25.07
2018-03-28T06:12:28.378Z,24.47
2018-03-28T06:14:55.132Z,23.20
2018-03-28T06:17:21.850Z,22.83
2018-03-28T06:19:48.570Z,24.10
2018-03-28T06:22:15.293Z,22.43
2018-03-28T06:24:42.013Z,22.23
2018-03-28T06:27:08.738Z,23.93
2018-03-28T06:29:35.488Z,25.77
2018-03-28T06:32:02.258Z,25.47
2018-03-28T06:34:28.975Z,23.63
2018-03-28T06:36:55.725Z,22.47
2018-03-28T06:39:22.472Z,25.10
2018-03-28T06:41:49.191Z,25.53
2018-03-28T06:44:15.928Z,24.23
2018-03-28T06:46:42.667Z,23.23
2018-03-28T06:49:09.395Z,23.70
2018-03-28T06:51:36.137Z,22.93
2018-03-28T06:54:02.889Z,25.20
2018-03-28T06:56:29.640Z,20.87
2018-03-28T06:58:56.375Z,20.87
2018-03-28T07:01:23.103Z,25.60
2018-03-28T07:03:49.850Z,23.17
2018-03-28T07:06:16.601Z,23.40
2018-03-28T07:08:43.331Z,23.90
2018-03-28T07:11:10.048Z,23.50
2018-03-28T07:13:36.791Z,22.73
2018-03-28T07:16:03.558Z,23.63
2018-03-28T07:18:30.428Z,22.77
2018-03-28T07:20:57.166Z,22.37
2018-03-28T07:23:23.905Z,24.60
2018-03-28T07:25:50.654Z,23.70
2018-03-28T07:28:17.393Z,24.47
2018-03-28T07:30:44.204Z,24.97
2018-03-28T07:33:10.925Z,24.37
2018-03-28T07:35:37.826Z,24.37
2018-03-28T07:38:04.547Z,24.20
2018-03-28T07:40:31.317Z,22.47
2018-03-28T07:42:58.084Z,23.27
2018-03-28T07:45:24.821Z,23.97
2018-03-28T07:47:51.549Z,22.50
2018-03-28T07:50:18.277Z,22.60
2018-03-28T07:52:45.010Z,23.03
2018-03-28T07:55:11.744Z,23.03
2018-03-28T07:57:38.500Z,23.03
2018-03-28T08:00:05.255Z,23.43
2018-03-28T08:02:31.986Z,23.00
2018-03-28T08:04:58.711Z,23.20
2018-03-28T08:07:25.450Z,22.87
2018-03-28T08:09:52.192Z,23.97
2018-03-28T08:12:18.931Z,23.70
2018-03-28T08:14:45.801Z,25.97
2018-03-28T08:17:12.518Z,24.83
2018-03-28T08:19:39.233Z,22.40
2018-03-28T08:22:05.954Z,23.30
2018-03-28T08:24:32.677Z,22.57
2018-03-28T08:26:59.409Z,23.97
2018-03-28T08:29:26.129Z,21.83
2018-03-28T08:31:52.848Z,23.50
2018-03-28T08:34:19.585Z,21.73
2018-03-28T08:36:46.313Z,22.03
2018-03-28T08:39:13.068Z,21.93
2018-03-28T08:41:39.803Z,22.23
2018-03-28T08:44:06.515Z,23.30
2018-03-28T08:46:33.311Z,20.30
2018-03-28T08:49:00.043Z,21.63
2018-03-28T08:51:26.764Z,22.87
2018-03-28T08:53:53.482Z,23.40
2018-03-28T08:56:20.214Z,22.90
2018-03-28T08:58:46.957Z,22.13
2018-03-28T09:01:13.682Z,21.70
2018-03-28T09:03:40.393Z,21.33
2018-03-28T09:06:07.101Z,21.97
2018-03-28T09:08:33.828Z,23.50
2018-03-28T09:11:00.550Z,20.80
2018-03-28T09:13:27.264Z,22.90
2018-03-28T09:15:53.975Z,22.37
2018-03-28T09:18:20.704Z,21.50
2018-03-28T09:20:47.437Z,21.60
2018-03-28T09:23:14.148Z,22.50
2018-03-28T09:25:40.852Z,22.03
2018-03-28T09:28:07.561Z,23.30
2018-03-28T09:30:34.278Z,21.53
2018-03-28T09:33:00.987Z,23.80
2018-03-28T09:35:27.713Z,23.20
2018-03-28T09:37:54.428Z,21.60
2018-03-28T09:40:21.153Z,21.80
2018-03-28T09:42:47.874Z,22.27
2018-03-28T09:45:14.601Z,22.37
2018-03-28T09:47:41.318Z,23.87
2018-03-28T09:50:08.054Z,22.03
2018-03-28T09:52:34.776Z,22.10
2018-03-28T09:55:01.488Z,21.27
2018-03-28T09:57:28.224Z,21.37
2018-03-28T09:59:54.942Z,21.70
2018-03-28T10:02:36.542Z,22.50
2018-03-28T10:05:03.310Z,23.27
2018-03-28T10:07:30.018Z,22.27
2018-03-28T10:09:56.719Z,24.33
2018-03-28T10:12:23.434Z,22.60
2018-03-28T10:14:50.142Z,24.00
2018-03-28T10:17:16.855Z,20.80
2018-03-28T10:19:43.576Z,22.00
2018-03-28T10:22:10.280Z,21.47
2018-03-28T10:24:36.998Z,22.43
2018-03-28T10:27:03.743Z,24.40
2018-03-28T10:29:30.461Z,23.20
2018-03-28T10:31:57.164Z,20.97
2018-03-28T10:34:23.878Z,21.17
2018-03-28T10:36:50.597Z,21.50
2018-03-28T10:39:17.307Z,21.27
2018-03-28T10:41:44.024Z,22.77
2018-03-28T10:44:10.736Z,19.90
2018-03-28T10:46:37.451Z,22.77
2018-03-28T10:49:04.179Z,23.80
2018-03-28T10:51:31.040Z,21.27
2018-03-28T10:53:57.752Z,23.53
2018-03-28T10:56:24.476Z,22.43
2018-03-28T10:58:51.191Z,22.83
2018-03-28T11:01:17.914Z,22.30
2018-03-28T11:03:44.627Z,22.73
2018-03-28T11:06:11.343Z,22.30
2018-03-28T11:08:38.062Z,20.57
2018-03-28T11:11:04.769Z,21.27
2018-03-28T11:13:31.502Z,21.33
2018-03-28T11:15:58.216Z,22.40
2018-03-28T11:18:24.929Z,22.70
2018-03-28T11:20:51.994Z,23.30
2018-03-28T11:23:18.715Z,22.27
2018-03-28T11:25:45.443Z,20.80
2018-03-28T11:28:12.162Z,20.40
2018-03-28T11:30:38.877Z,20.50
2018-03-28T11:33:05.589Z,21.37
2018-03-28T11:35:32.308Z,21.10
2018-03-28T11:37:59.022Z,21.90
2018-03-28T11:40:25.741Z,20.57
2018-03-28T11:42:52.457Z,18.23
2018-03-28T11:45:19.169Z,21.07
2018-03-28T11:47:45.890Z,20.73
2018-03-28T11:50:12.613Z,19.53
2018-03-28T11:52:39.323Z,19.67
2018-03-28T11:55:06.050Z,20.00
2018-03-28T11:57:32.767Z,17.80
2018-03-28T11:59:59.478Z,20.30
2018-03-28T12:02:26.193Z,19.70
2018-03-28T12:04:52.908Z,19.70
2018-03-28T12:07:19.631Z,19.10
2018-03-28T12:09:46.340Z,19.30
2018-03-28T12:12:13.052Z,19.07
2018-03-28T12:14:39.773Z,20.17
2018-03-28T12:17:06.485Z,19.47
2018-03-28T12:19:33.219Z,20.83
2018-03-28T12:21:59.952Z,18.90
2018-03-28T12:24:26.668Z,20.47
2018-03-28T12:26:53.381Z,19.50
2018-03-28T12:29:20.110Z,18.10
2018-03-28T12:31:46.837Z,19.40
2018-03-28T12:34:13.542Z,19.47
2018-03-28T12:36:40.257Z,19.87
2018-03-28T12:39:06.999Z,19.70
2018-03-28T12:41:33.725Z,21.37
2018-03-28T12:44:00.438Z,20.87
2018-03-28T12:46:27.153Z,20.57
2018-03-28T12:48:53.861Z,20.73
2018-03-28T12:51:20.635Z,20.77
2018-03-28T12:53:47.313Z,19.77
2018-03-28T12:56:14.033Z,21.60
2018-03-28T12:58:40.762Z,19.43
2018-03-28T13:01:08.133Z,20.13
2018-03-28T13:03:34.864Z,19.40
2018-03-28T13:06:01.592Z,21.17
2018-03-28T13:08:28.426Z,19.60
2018-03-28T13:10:55.134Z,19.33
2018-03-28T13:13:21.850Z,19.97
2018-03-28T13:15:48.549Z,20.20
2018-03-28T13:18:15.257Z,19.07
2018-03-28T13:20:41.969Z,22.20
2018-03-28T13:23:08.680Z,20.10
2018-03-28T13:25:35.388Z,20.80
2018-03-28T13:28:02.088Z,20.10
2018-03-28T13:30:28.806Z,22.40
2018-03-28T13:32:55.525Z,20.00
2018-03-28T13:35:22.248Z,21.73
2018-03-28T13:37:48.965Z,21.70
2018-03-28T13:40:15.713Z,21.83
2018-03-28T13:42:56.298Z,21.37
2018-03-28T13:45:30.105Z,20.90
2018-03-28T13:47:56.816Z,19.60
2018-03-28T13:50:23.529Z,18.57
2018-03-28T13:52:57.966Z,19.60
2018-03-28T13:55:25.938Z,19.57
2018-03-28T13:57:54.505Z,17.73
2018-03-28T14:00:21.217Z,18.70
2018-03-28T14:02:50.629Z,17.93
2018-03-28T14:05:17.352Z,17.90
2018-03-28T14:07:44.201Z,18.33
2018-03-28T14:10:11.756Z,19.20
2018-03-28T14:12:38.472Z,16.50
2018-03-28T14:15:05.185Z,18.60
2018-03-28T14:17:31.907Z,19.23
2018-03-28T14:19:58.632Z,19.07
2018-03-28T14:22:26.084Z,19.60
2018-03-28T14:24:52.796Z,20.73
2018-03-28T14:27:19.509Z,20.20
2018-03-28T14:34:19.317Z,21.17
2018-03-28T14:36:46.026Z,22.23
2018-03-28T14:39:13.350Z,21.70
2018-03-28T14:41:40.084Z,22.00
2018-03-28T14:44:36.204Z,22.10
2018-03-28T14:47:02.917Z,21.63
2018-03-28T14:49:29.617Z,23.03
2018-03-28T14:51:56.347Z,23.20
2018-03-28T14:54:23.049Z,22.00
2018-03-28T14:56:49.778Z,22.67
2018-03-28T14:59:16.481Z,22.47
2018-03-28T15:01:43.244Z,22.03
2018-03-28T15:04:10.013Z,24.20
2018-03-28T15:06:36.717Z,23.70
2018-03-28T15:09:03.480Z,24.10
2018-03-28T15:11:30.204Z,23.10
2018-03-28T15:13:56.924Z,22.80
2018-03-28T15:16:23.655Z,24.70
2018-03-28T15:18:50.383Z,25.27
2018-03-28T15:21:17.251Z,23.40
2018-03-28T15:23:43.969Z,22.13
2018-03-28T15:26:10.730Z,24.07
2018-03-28T15:28:37.449Z,21.97
2018-03-28T15:31:04.194Z,22.83
2018-03-28T15:33:30.966Z,22.93
2018-03-28T15:35:57.772Z,22.10
2018-03-28T15:38:24.481Z,22.87
2018-03-28T15:40:51.215Z,24.13
2018-03-28T15:43:18.746Z,22.63
2018-03-28T15:45:45.474Z,22.17
2018-03-28T15:48:12.197Z,22.77
2018-03-28T15:50:39.129Z,22.17
2018-03-28T15:53:05.878Z,22.50
2018-03-28T15:55:32.604Z,24.30
2018-03-28T15:57:59.343Z,23.30
2018-03-28T16:00:26.100Z,24.10
2018-03-28T16:02:52.914Z,23.67
2018-03-28T16:05:21.768Z,27.43
2018-03-28T16:07:49.909Z,23.50
2018-03-28T16:10:31.666Z,22.83
2018-03-28T16:13:01.797Z,24.53
2018-03-28T16:15:33.862Z,24.07
2018-03-28T16:18:06.369Z,23.67
2018-03-28T16:20:36.383Z,23.47
2018-03-28T16:23:05.572Z,22.17
2018-03-28T16:25:34.114Z,22.83
2018-03-28T16:28:02.809Z,20.57
2018-03-28T16:30:30.856Z,22.93
2018-03-28T16:32:59.004Z,23.80
2018-03-28T16:35:27.626Z,21.37
2018-03-28T16:37:57.329Z,22.10
2018-03-28T16:40:24.085Z,23.43
2018-03-28T16:42:50.830Z,22.90
2018-03-28T16:45:17.578Z,22.23
2018-03-28T16:47:44.389Z,23.23
2018-03-28T16:50:11.120Z,22.77
2018-03-28T16:52:37.894Z,22.83
2018-03-28T16:55:04.648Z,21.67
2018-03-28T16:57:31.400Z,20.87
2018-03-28T16:59:58.232Z,22.30
2018-03-28T17:02:24.957Z,22.40
2018-03-28T17:04:51.743Z,22.37
2018-03-28T17:07:18.493Z,21.80
2018-03-28T17:09:45.208Z,26.43
2018-03-28T17:12:11.965Z,24.33
2018-03-28T17:14:38.870Z,25.00
2018-03-28T17:17:05.703Z,24.83
2018-03-28T17:19:32.435Z,23.57
2018-03-28T17:21:59.206Z,23.50
2018-03-28T17:24:25.942Z,22.33
2018-03-28T17:26:52.695Z,23.00
2018-03-28T17:29:19.419Z,21.33
2018-03-28T17:31:46.330Z,23.80
2018-03-28T17:34:13.128Z,21.13
2018-03-28T17:36:39.870Z,24.30
2018-03-28T17:39:06.659Z,22.70
2018-03-28T17:41:33.419Z,22.47
2018-03-28T17:44:00.166Z,23.13
2018-03-28T17:46:26.890Z,21.90
2018-03-28T17:48:53.622Z,23.33
2018-03-28T17:51:20.365Z,22.17
2018-03-28T17:53:47.109Z,22.20
2018-03-28T17:56:13.837Z,23.60
2018-03-28T17:58:40.572Z,22.07
2018-03-28T18:01:07.400Z,22.70
2018-03-28T18:03:34.146Z,22.87
2018-03-28T18:06:00.876Z,25.33
2018-03-28T18:08:27.591Z,23.00
2018-03-28T18:10:54.351Z,22.50
2018-03-28T18:13:21.084Z,23.50
2018-03-28T18:15:47.825Z,24.10
2018-03-28T18:18:14.569Z,23.20
2018-03-28T18:20:41.362Z,23.50
2018-03-28T18:23:08.088Z,24.77
2018-03-28T18:25:34.864Z,23.90
2018-03-28T18:28:01.729Z,25.80
2018-03-28T18:30:28.830Z,24.33
2018-03-28T18:32:55.568Z,23.27
2018-03-28T18:35:22.308Z,26.10
2018-03-28T18:37:49.278Z,26.17
2018-03-28T18:40:16.088Z,25.73
2018-03-28T18:42:42.851Z,23.27
2018-03-28T18:45:09.616Z,25.17
2018-03-28T18:47:36.365Z,25.60
2018-03-28T18:50:03.170Z,23.13
2018-03-28T18:52:29.990Z,22.53
2018-03-28T18:54:56.736Z,22.70
2018-03-28T18:57:23.480Z,22.73
2018-03-28T18:59:50.241Z,23.10
2018-03-28T19:02:17.073Z,24.00
2018-03-28T19:04:43.906Z,23.13
2018-03-28T19:07:10.652Z,25.47
2018-03-28T19:09:37.399Z,25.30
2018-03-28T19:12:04.152Z,24.40
2018-03-28T19:14:30.921Z,25.97
2018-03-28T19:16:57.803Z,25.43
2018-03-28T19:19:24.547Z,25.03
2018-03-28T19:21:51.280Z,25.40
2018-03-28T19:24:18.068Z,26.37
2018-03-28T19:26:44.865Z,27.17
2018-03-28T19:29:11.618Z,26.10
2018-03-28T19:31:38.684Z,24.57
2018-03-28T19:34:05.417Z,24.37
2018-03-28T19:36:32.151Z,24.70
2018-03-28T19:38:58.896Z,26.93
2018-03-28T19:41:25.644Z,26.10
2018-03-28T19:43:52.409Z,26.37
2018-03-28T19:46:19.185Z,28.47
2018-03-28T19:48:46.040Z,26.10
2018-03-28T19:51:12.779Z,28.40
2018-03-28T19:53:39.743Z,25.33
2018-03-28T19:56:06.481Z,25.50
2018-03-28T19:58:33.240Z,25.37
2018-03-28T20:01:05.449Z,26.03
2018-03-28T20:03:32.765Z,27.00
2018-03-28T20:05:59.541Z,25.40
2018-03-28T20:08:26.293Z,24.17
2018-03-28T20:11:02.620Z,23.60
2018-03-28T20:13:29.383Z,25.50
2018-03-28T20:15:56.158Z,27.80
2018-03-28T20:18:22.880Z,24.37
2018-03-28T20:20:49.606Z,26.83
2018-03-28T20:23:16.352Z,27.27
2018-03-28T20:25:43.078Z,26.53
2018-03-28T20:28:09.818Z,26.50
2018-03-28T20:30:37.389Z,27.37
2018-03-28T20:33:04.131Z,29.83
2018-03-28T20:35:30.867Z,25.53
2018-03-28T20:37:57.594Z,24.80
2018-03-28T20:40:24.396Z,24.43
2018-03-28T20:42:51.163Z,25.97
2018-03-28T20:45:17.906Z,24.30
2018-03-28T20:47:44.786Z,25.30
2018-03-28T20:50:11.523Z,23.60
2018-03-28T20:52:38.255Z,26.20
2018-03-28T20:55:04.982Z,24.63
2018-03-28T20:57:31.748Z,27.30
2018-03-28T20:59:58.496Z,25.60
2018-03-28T21:02:25.222Z,24.80
2018-03-28T21:04:51.969Z,25.17
2018-03-28T21:07:18.715Z,23.97
2018-03-28T21:09:46.479Z,24.30
2018-03-28T21:12:13.231Z,25.10
2018-03-28T21:14:39.971Z,24.70
2018-03-28T21:17:07.476Z,25.80
2018-03-28T21:19:34.222Z,25.40
2018-03-28T21:22:00.975Z,24.60
2018-03-28T21:24:27.741Z,24.57
2018-03-28T21:26:54.467Z,27.30
2018-03-28T21:29:21.193Z,26.63
2018-03-28T21:31:47.923Z,29.07
2018-03-28T21:34:14.666Z,27.67
2018-03-28T21:36:41.407Z,27.23
2018-03-28T21:39:09.072Z,26.83
2018-03-28T21:41:35.970Z,25.60
2018-03-28T21:44:02.863Z,27.30
2018-03-28T21:46:29.605Z,25.93
2018-03-28T21:48:56.345Z,27.57
2018-03-28T21:51:23.079Z,28.47
2018-03-28T21:53:49.804Z,26.77
2018-03-28T21:56:16.538Z,26.53
2018-03-28T21:58:43.272Z,25.93
2018-03-28T22:01:10.245Z,30.53
2018-03-28T22:03:36.970Z,29.83
2018-03-28T22:06:03.705Z,28.47
2018-03-28T22:08:30.445Z,28.50
2018-03-28T22:10:57.181Z,29.13
2018-03-28T22:13:23.918Z,30.20
2018-03-28T22:15:50.649Z,26.73
2018-03-28T22:18:17.391Z,27.50
2018-03-28T22:20:44.279Z,28.20
2018-03-28T22:23:11.032Z,28.07
2018-03-28T22:25:37.761Z,28.97
2018-03-28T22:28:04.497Z,27.17
2018-03-28T22:30:31.223Z,28.00
2018-03-28T22:32:57.969Z,30.83
2018-03-28T22:35:24.698Z,28.50
2018-03-28T22:37:51.429Z,26.70
2018-03-28T22:40:18.158Z,27.10
2018-03-28T22:42:44.874Z,27.53
2018-03-28T22:45:11.676Z,28.30
2018-03-28T22:47:38.423Z,27.30
2018-03-28T22:50:05.168Z,27.93
2018-03-28T22:52:31.908Z,30.20
2018-03-28T22:54:58.635Z,26.77
2018-03-28T22:57:25.353Z,27.10
2018-03-28T22:59:52.100Z,30.23
2018-03-28T23:02:18.839Z,28.80
2018-03-28T23:04:45.564Z,26.93
2018-03-28T23:07:12.295Z,29.90
2018-03-28T23:09:39.021Z,28.23
2018-03-28T23:12:05.748Z,28.50
2018-03-28T23:14:32.482Z,28.40
2018-03-28T23:16:59.207Z,29.77
2018-03-28T23:19:25.968Z,27.13
2018-03-28T23:21:52.697Z,26.90
2018-03-28T23:24:19.434Z,29.13
2018-03-28T23:26:46.193Z,27.60
2018-03-28T23:29:12.914Z,27.83
2018-03-28T23:31:39.712Z,28.20
2018-03-28T23:34:06.444Z,29.17
2018-03-28T23:36:33.166Z,29.27
2018-03-28T23:38:59.894Z,29.13
2018-03-28T23:41:26.623Z,29.23
2018-03-28T23:43:53.365Z,29.30
2018-03-28T23:46:20.090Z,28.00
2018-03-28T23:48:46.823Z,30.23
2018-03-28T23:51:13.568Z,29.23
2018-03-28T23:53:40.361Z,29.40
2018-03-28T23:56:07.099Z,27.67
2018-03-28T23:58:33.833Z,29.60
